Terminal Aerodrome Forecast
Issued by NWS

Home | Current Version | Previous Version | Text Only | Print | Product List | Glossary On
Versions: 1 2 3 4 5 6 7 8 9 10 11 12
166
FTUS42 TJSJ 141130
TAFJSJ
TAF
TJSJ 141130Z 1412/1512 15004KT P6SM FEW030 OVC050
     FM141300 08010KT P6SM VCSH SCT030 SCT060
     FM142100 06007KT P6SM SCT030 OVC100=

USA.gov is the U.S. government's official web portal to all federal, state and local government web resources and services.